Time;durP1;ratioP1;P1;durP2;ratioP2;P2;SDS_P1;SDS_P2;PMS_P1;PMS_P2;Temp;Humidity;BMP_temperature;BMP_pressure;BME280_temperature;BME280_humidity;BME280_pressure;Samples;Min_cycle;Max_cycle;Signal;HPM_P1;HPM_P2
2022/09/20 00:00:13;;;;;;;21.42;12.77;;;;;;;11.03;100.00;102154.28;5055035;28;20048;-60
2022/09/20 00:02:38;;;;;;;19.75;13.05;;;;;;;10.99;99.98;102146.81;5053812;28;20314;-61
2022/09/20 00:05:04;;;;;;;22.80;13.45;;;;;;;11.00;100.00;102143.75;5055004;28;20449;-60
2022/09/20 00:07:29;;;;;;;22.80;13.73;;;;;;;11.01;100.00;102150.09;5054787;28;20104;-59
2022/09/20 00:09:56;;;;;;;21.23;12.77;;;;;;;10.99;100.00;102144.84;5054819;28;20028;-60
2022/09/20 00:12:21;;;;;;;21.65;12.95;;;;;;;10.97;100.00;102137.94;5054977;28;20040;-59
2022/09/20 00:14:46;;;;;;;21.17;12.88;;;;;;;10.97;100.00;102149.00;5053287;28;20032;-58
2022/09/20 00:17:11;;;;;;;22.45;12.88;;;;;;;10.95;100.00;102146.53;5054969;28;20460;-58
2022/09/20 00:19:37;;;;;;;22.35;13.32;;;;;;;10.94;100.00;102153.16;5054006;28;20055;-59
2022/09/20 00:22:02;;;;;;;23.27;13.43;;;;;;;10.93;100.00;102149.56;5054548;28;20021;-60
2022/09/20 00:24:27;;;;;;;24.70;13.65;;;;;;;10.88;100.00;102157.88;5053362;28;20021;-59
2022/09/20 00:26:54;;;;;;;21.38;12.85;;;;;;;10.89;100.00;102148.47;5054419;28;20105;-60
2022/09/20 00:29:19;;;;;;;21.85;13.00;;;;;;;10.87;100.00;102147.91;5053272;28;20496;-60
2022/09/20 00:31:45;;;;;;;20.25;13.13;;;;;;;10.83;100.00;102152.31;5054260;28;20028;-60
2022/09/20 00:36:55;;;;;;;20.77;12.75;;;;;;;10.82;100.00;102158.13;5054962;28;20040;-62
2022/09/20 00:39:20;;;;;;;22.88;14.00;;;;;;;10.79;100.00;102159.53;5054454;28;20033;-60
2022/09/20 00:41:45;;;;;;;21.02;13.85;;;;;;;10.75;100.00;102156.47;5054603;28;20136;-60
2022/09/20 00:44:46;;;;;;;23.15;13.57;;;;;;;10.74;100.00;102160.34;5054217;28;20054;-60
2022/09/20 00:47:25;;;;;;;22.02;13.18;;;;;;;10.64;100.00;102146.50;5054169;28;20025;-60
2022/09/20 00:49:56;;;;;;;23.42;13.50;;;;;;;10.60;100.00;102148.97;5052764;28;20405;-60
2022/09/20 00:52:22;;;;;;;23.33;14.20;;;;;;;10.65;100.00;102159.22;5054009;28;20422;-59
2022/09/20 00:54:48;;;;;;;23.40;13.45;;;;;;;10.60;100.00;102164.75;5053758;28;20033;-60
2022/09/20 00:57:13;;;;;;;24.17;14.43;;;;;;;10.58;100.00;102150.38;5054094;28;20031;-61
2022/09/20 00:59:41;;;;;;;22.30;13.40;;;;;;;10.58;100.00;102159.50;5054220;28;20128;-59
2022/09/20 01:02:18;;;;;;;22.48;13.15;;;;;;;10.57;100.00;102159.78;5053724;28;20067;-59
2022/09/20 01:04:46;;;;;;;23.48;13.38;;;;;;;10.48;100.00;102159.47;5054187;28;20052;-59
2022/09/20 01:07:17;;;;;;;21.20;13.73;;;;;;;10.49;100.00;102149.22;5053066;28;20021;-60
2022/09/20 01:09:42;;;;;;;22.38;13.45;;;;;;;10.55;100.00;102162.78;5053306;28;20108;-60
2022/09/20 01:12:20;;;;;;;23.95;13.52;;;;;;;10.55;100.00;102167.50;5053043;28;20453;-59
2022/09/20 01:14:48;;;;;;;26.77;15.27;;;;;;;10.47;100.00;102149.50;5053793;28;20072;-60
2022/09/20 01:17:15;;;;;;;23.35;14.30;;;;;;;10.53;100.00;102156.69;5048935;22;20059;-62
2022/09/20 01:19:43;;;;;;;23.52;14.93;;;;;;;10.55;100.00;102162.78;5033749;28;20202;-63
2022/09/20 01:22:31;;;;;;;25.40;14.48;;;;;;;10.56;100.00;102166.41;5034162;28;20032;-62
2022/09/20 01:25:34;;;;;;;25.17;14.13;;;;;;;10.49;100.00;102166.66;5033994;28;20438;-61
2022/09/20 01:27:59;;;;;;;21.83;13.48;;;;;;;10.49;100.00;102157.53;5034014;28;20151;-61
2022/09/20 01:30:53;;;;;;;23.08;13.60;;;;;;;10.49;100.00;102160.28;5033955;28;20060;-62
2022/09/20 01:33:35;;;;;;;22.10;13.77;;;;;;;10.50;100.00;102160.03;5005677;28;20045;-62
2022/09/20 01:36:03;;;;;;;22.10;13.00;;;;;;;10.55;100.00;102161.97;5033945;28;20037;-61
2022/09/20 01:39:09;;;;;;;24.60;14.07;;;;;;;10.57;100.00;102146.75;5033686;28;20095;-61
2022/09/20 01:41:50;;;;;;;21.83;13.57;;;;;;;10.58;100.00;102148.41;5031994;28;20037;-62
2022/09/20 01:44:39;;;;;;;26.08;13.73;;;;;;;10.60;100.00;102154.53;5033927;28;20083;-62
2022/09/20 01:47:10;;;;;;;23.55;13.40;;;;;;;10.61;100.00;102147.88;5033486;28;20060;-62
2022/09/20 01:49:58;;;;;;;22.85;13.40;;;;;;;10.62;100.00;102148.69;5032999;28;20584;-62
2022/09/20 01:52:44;;;;;;;20.85;13.18;;;;;;;10.67;100.00;102145.97;5033647;28;20469;-63
2022/09/20 01:55:15;;;;;;;23.00;13.52;;;;;;;10.65;100.00;102147.31;5033270;28;20381;-62
2022/09/20 01:58:16;;;;;;;23.23;14.48;;;;;;;10.68;100.00;102155.91;5033431;28;20040;-63
2022/09/20 02:00:59;;;;;;;23.48;14.10;;;;;;;10.64;100.00;102159.50;5022277;28;20057;-63
2022/09/20 02:03:37;;;;;;;23.20;14.05;;;;;;;10.62;100.00;102157.00;5033453;28;20025;-62
2022/09/20 02:06:31;;;;;;;21.10;13.75;;;;;;;10.66;100.00;102168.34;5033324;28;20510;-62
2022/09/20 02:09:09;;;;;;;;;;;;;;;10.63;100.00;102163.38;5033142;28;20432;-63
2022/09/20 02:12:29;;;;;;;22.65;13.60;;;;;;;10.61;100.00;102160.88;5032824;28;19913;-62
2022/09/20 02:15:26;;;;;;;24.75;14.10;;;;;;;10.58;100.00;102161.44;4971988;28;20052;-63
2022/09/20 02:18:24;;;;;;;22.02;13.27;;;;;;;10.56;100.00;102155.34;5032857;28;20428;-64
2022/09/20 02:21:26;;;;;;;22.77;12.57;;;;;;;10.55;100.00;102157.25;5006322;28;20510;-63
2022/09/20 02:24:19;;;;;;;21.70;12.50;;;;;;;10.54;100.00;102160.31;5032632;28;20017;-62
2022/09/20 02:27:17;;;;;;;19.77;11.77;;;;;;;10.56;100.00;102149.81;5032885;28;20030;-66
2022/09/20 02:29:52;;;;;;;20.65;12.88;;;;;;;10.56;100.00;102138.75;5032415;28;20040;-62
2022/09/20 02:32:42;;;;;;;21.90;12.55;;;;;;;10.57;100.00;102143.16;5032825;28;20064;-62
2022/09/20 02:35:44;;;;;;;21.90;12.05;;;;;;;10.57;100.00;102143.16;5032803;28;20041;-63
2022/09/20 02:38:52;;;;;;;22.83;12.40;;;;;;;10.60;100.00;102143.44;5015609;28;20120;-63
2022/09/20 02:41:50;;;;;;;23.13;11.88;;;;;;;10.61;100.00;102141.50;5032975;28;20044;-63
2022/09/20 02:44:40;;;;;;;20.98;11.70;;;;;;;10.58;100.00;102139.31;5032668;28;20029;-63
2022/09/20 02:47:14;;;;;;;22.00;12.30;;;;;;;10.55;100.00;102139.84;5032657;28;20061;-63
2022/09/20 02:49:51;;;;;;;;;;;;;;;10.59;100.00;102152.00;5032586;28;20026;-63
2022/09/20 02:52:27;;;;;;;22.17;12.45;;;;;;;10.54;100.00;102146.47;5031655;28;19975;-62
2022/09/20 02:55:04;;;;;;;23.38;12.30;;;;;;;10.54;100.00;102141.75;5032025;28;20140;-63
2022/09/20 02:57:49;;;;;;;23.05;12.18;;;;;;;10.54;100.00;102140.94;5032385;28;20037;-61
2022/09/20 03:00:22;;;;;;;21.05;11.60;;;;;;;10.50;100.00;102137.03;5032263;28;20203;-63
2022/09/20 03:03:43;;;;;;;22.58;12.95;;;;;;;10.56;100.00;102152.56;5032200;28;20476;-62
2022/09/20 03:06:29;;;;;;;20.60;12.27;;;;;;;10.42;100.00;102127.38;4956059;28;20045;-62
2022/09/20 03:09:09;;;;;;;22.05;13.43;;;;;;;10.53;100.00;102142.84;5027590;28;20071;-61
2022/09/20 03:11:55;;;;;;;22.20;12.98;;;;;;;10.49;100.00;102147.31;5032348;28;20030;-61
2022/09/20 03:14:36;;;;;;;22.17;13.20;;;;;;;10.49;100.00;102146.44;5032226;28;20029;-62
2022/09/20 03:17:23;;;;;;;23.63;13.13;;;;;;;10.44;100.00;102138.97;5032075;28;20048;-62
2022/09/20 03:20:02;;;;;;;22.30;13.38;;;;;;;10.47;99.93;102148.69;5031755;28;20045;-63
2022/09/20 03:22:40;;;;;;;21.85;12.73;;;;;;;10.44;100.00;102141.75;5032151;28;20025;-62
2022/09/20 03:25:42;;;;;;;21.13;12.45;;;;;;;10.46;100.00;102142.31;5032024;28;20018;-62
2022/09/20 03:28:38;;;;;;;22.10;12.82;;;;;;;10.46;100.00;102145.06;5031996;28;20068;-62
2022/09/20 03:31:45;;;;;;;21.02;13.25;;;;;;;10.48;100.00;102147.59;5032102;28;20083;-62
2022/09/20 03:34:31;;;;;;;21.65;12.80;;;;;;;10.46;99.78;102142.31;5002168;28;20045;-63
2022/09/20 03:37:15;;;;;;;21.95;12.73;;;;;;;10.47;100.00;102143.16;5031858;28;20022;-62
2022/09/20 03:39:59;;;;;;;23.25;12.30;;;;;;;10.47;99.92;102140.38;5031688;28;20472;-63
2022/09/20 03:42:28;;;;;;;22.10;13.13;;;;;;;10.41;99.77;102143.13;5031815;28;20481;-62
2022/09/20 03:45:29;;;;;;;22.23;12.07;;;;;;;10.48;99.95;102150.34;5032149;28;20064;-62
2022/09/20 03:48:20;;;;;;;23.33;12.70;;;;;;;10.50;99.26;102156.41;5031430;28;20103;-63
2022/09/20 03:51:13;;;;;;;22.40;12.23;;;;;;;10.52;99.03;102149.53;5031840;28;20588;-63
2022/09/20 03:53:50;;;;;;;23.25;12.30;;;;;;;10.51;99.22;102152.53;5031817;28;20032;-63
2022/09/20 03:56:19;;;;;;;23.27;13.40;;;;;;;10.51;99.46;102147.00;5031868;28;20038;-63
2022/09/20 03:59:02;;;;;;;21.13;13.18;;;;;;;10.49;99.69;102143.69;5032108;28;20401;-62
2022/09/20 04:01:45;;;;;;;21.02;12.35;;;;;;;10.50;99.57;102150.88;5031934;28;20052;-63
2022/09/20 04:04:42;;;;;;;23.10;12.40;;;;;;;10.52;100.00;102145.91;5033191;28;20056;-63
2022/09/20 04:07:16;;;;;;;19.75;12.32;;;;;;;10.50;99.59;102139.81;5035272;28;20032;-62
2022/09/20 04:10:05;;;;;;;20.42;11.65;;;;;;;10.49;99.74;102141.75;5035506;28;20029;-62
2022/09/20 04:13:08;;;;;;;21.23;11.57;;;;;;;10.50;100.00;102140.66;5035473;28;20112;-62
2022/09/20 04:16:11;;;;;;;21.60;12.40;;;;;;;10.52;100.00;102149.53;5035102;28;20018;-62
2022/09/20 04:19:11;;;;;;;23.30;13.00;;;;;;;10.51;100.00;102145.09;5035362;28;20579;-63
2022/09/20 04:21:50;;;;;;;23.35;12.90;;;;;;;10.48;100.00;102144.81;5035359;28;20033;-64
2022/09/20 04:24:34;;;;;;;22.23;13.35;;;;;;;10.50;100.00;102137.91;5050705;28;20029;-64
2022/09/20 04:27:21;;;;;;;23.30;13.55;;;;;;;10.48;100.00;102145.63;5035010;28;20029;-63
2022/09/20 04:30:18;;;;;;;23.58;13.77;;;;;;;10.47;100.00;102138.44;5035140;28;20536;-63
2022/09/20 04:33:05;;;;;;;25.33;14.23;;;;;;;10.48;100.00;102145.63;5025868;28;20033;-62
2022/09/20 04:38:30;;;;;;;23.08;13.73;;;;;;;10.44;100.00;102144.50;5034512;28;20044;-62
2022/09/20 04:41:19;;;;;;;25.15;14.52;;;;;;;10.44;100.00;102150.88;5034664;28;20033;-63
2022/09/20 04:44:20;;;;;;;21.98;13.80;;;;;;;10.41;100.00;102151.41;5034886;28;20025;-63
2022/09/20 04:47:05;;;;;;;23.23;13.73;;;;;;;10.43;100.00;102156.69;5035117;28;20035;-62
2022/09/20 04:49:52;;;;;;;23.17;13.90;;;;;;;10.42;100.00;102152.28;5034388;28;20116;-63
2022/09/20 04:52:38;;;;;;;24.65;14.02;;;;;;;10.37;100.00;102149.44;5034390;28;20029;-63
2022/09/20 04:55:37;;;;;;;24.10;14.38;;;;;;;10.43;100.00;102160.28;5034270;28;20040;-63
2022/09/20 04:58:32;;;;;;;23.92;13.80;;;;;;;10.32;100.00;102144.72;5034317;28;20087;-62
2022/09/20 05:01:29;;;;;;;22.92;14.25;;;;;;;10.43;100.00;102163.06;5034381;28;20484;-62
2022/09/20 05:04:13;;;;;;;23.27;13.80;;;;;;;10.42;100.00;102166.91;5034272;28;20049;-62
2022/09/20 05:07:00;;;;;;;24.38;14.02;;;;;;;10.41;100.00;102162.50;5034442;28;20034;-63
2022/09/20 05:09:49;;;;;;;21.35;12.95;;;;;;;10.38;100.00;102171.34;5033510;28;20029;-62
2022/09/20 05:12:17;;;;;;;21.80;13.52;;;;;;;10.35;100.00;102169.09;5033601;28;20029;-61
2022/09/20 05:15:13;;;;;;;24.38;13.02;;;;;;;10.31;100.00;102170.72;5033729;28;20033;-62
2022/09/20 05:17:54;;;;;;;22.75;13.60;;;;;;;10.24;100.00;102171.00;5033976;28;20504;-63
2022/09/20 05:20:25;;;;;;;22.70;13.52;;;;;;;10.24;100.00;102157.19;5033739;28;20484;-62
2022/09/20 05:22:53;;;;;;;24.25;14.48;;;;;;;10.20;100.00;102167.09;5032362;28;20021;-62
2022/09/20 05:25:50;;;;;;;23.30;15.20;;;;;;;10.20;100.00;102172.63;5033954;28;20113;-62
2022/09/20 05:28:36;;;;;;;24.48;15.02;;;;;;;10.18;100.00;102179.53;5033797;28;20083;-62
2022/09/20 05:31:32;;;;;;;27.50;15.75;;;;;;;10.18;100.00;102174.84;5033781;28;20037;-62
2022/09/20 05:34:06;;;;;;;24.35;14.43;;;;;;;10.19;100.00;102181.22;5033797;28;20456;-62
2022/09/20 05:36:58;;;;;;;23.35;13.82;;;;;;;10.20;100.00;102189.22;5033984;28;20046;-62
2022/09/20 05:39:42;;;;;;;23.40;13.40;;;;;;;10.18;100.00;102180.38;5033615;28;20033;-62
2022/09/20 05:42:45;;;;;;;24.67;13.23;;;;;;;10.26;100.00;102193.66;5034262;28;20097;-63
2022/09/20 05:45:56;;;;;;;24.83;13.43;;;;;;;10.33;100.00;102195.38;5033754;28;20032;-62
2022/09/20 05:48:48;;;;;;;22.10;12.63;;;;;;;10.37;100.00;102185.41;5017794;28;20041;-62
2022/09/20 05:51:50;;;;;;;26.30;12.95;;;;;;;10.49;100.00;102199.03;5033655;28;20071;-62
2022/09/20 05:54:24;;;;;;;22.27;13.52;;;;;;;10.53;100.00;102198.19;5033288;28;20029;-62
2022/09/20 05:56:52;;;;;;;23.25;14.70;;;;;;;10.61;100.00;102202.38;5033203;28;20032;-62
2022/09/20 05:59:29;;;;;;;22.15;13.35;;;;;;;10.64;100.00;102204.63;5032813;28;20036;-62
2022/09/20 06:02:09;;;;;;;20.98;12.80;;;;;;;10.67;100.00;102197.69;5032840;28;20048;-62
2022/09/20 06:05:02;;;;;;;23.23;13.32;;;;;;;10.78;100.00;102204.91;5033320;28;20152;-62
2022/09/20 06:07:44;;;;;;;21.80;12.80;;;;;;;10.85;100.00;102201.88;5033334;28;20022;-61
2022/09/20 06:10:23;;;;;;;21.95;13.15;;;;;;;10.91;100.00;102204.38;5032605;28;20112;-61
2022/09/20 06:12:59;;;;;;;24.15;12.88;;;;;;;10.91;100.00;102201.59;5032952;28;20022;-61
2022/09/20 06:16:00;;;;;;;22.23;12.60;;;;;;;10.98;100.00;102209.63;5032925;28;20060;-58
2022/09/20 06:18:42;;;;;;;20.90;12.52;;;;;;;10.95;100.00;102221.28;5032598;28;20053;-62
2022/09/20 06:21:19;;;;;;;20.92;13.02;;;;;;;10.98;100.00;102223.47;5032723;28;20087;-62
2022/09/20 06:23:45;;;;;;;21.48;12.60;;;;;;;11.00;100.00;102220.47;5032979;28;20040;-63
2022/09/20 06:26:16;;;;;;;20.92;12.70;;;;;;;10.98;100.00;102219.91;5032324;28;20025;-61
2022/09/20 06:28:58;;;;;;;21.70;12.43;;;;;;;10.90;100.00;102210.19;5032595;28;20036;-62
2022/09/20 06:31:23;;;;;;;23.02;13.18;;;;;;;11.02;100.00;102219.06;5032778;28;20033;-62
2022/09/20 06:33:57;;;;;;;21.42;12.35;;;;;;;11.05;100.00;102221.28;5033048;28;20083;-62
2022/09/20 06:42:05;;;;;;;20.25;11.77;;;;;;;11.14;100.00;102216.03;5032717;28;20052;-62
2022/09/20 06:44:30;;;;;;;20.80;12.60;;;;;;;11.16;99.59;102224.03;5030689;28;20071;-62
2022/09/20 06:46:56;;;;;;;21.42;12.40;;;;;;;11.18;99.89;102224.59;5030092;28;20029;-63
2022/09/20 06:49:22;;;;;;;22.48;12.50;;;;;;;11.20;99.77;102222.41;5030358;28;20017;-63
2022/09/20 06:51:49;;;;;;;21.23;12.65;;;;;;;11.24;100.00;102226.28;5029547;28;20142;-62
2022/09/20 06:54:19;;;;;;;22.35;12.93;;;;;;;11.33;99.95;102221.84;5030096;28;20040;-62
2022/09/20 06:56:46;;;;;;;21.15;12.38;;;;;;;11.41;99.93;102225.16;5029339;28;20040;-62
2022/09/20 06:59:13;;;;;;;19.80;11.65;;;;;;;11.45;99.30;102221.56;5028679;28;20025;-62
2022/09/20 07:01:39;;;;;;;22.88;12.80;;;;;;;11.43;98.82;102217.41;5029403;28;20018;-62
2022/09/20 07:04:05;;;;;;;21.38;11.95;;;;;;;11.42;98.81;102227.66;5028859;28;20026;-62
2022/09/20 07:06:31;;;;;;;19.83;12.23;;;;;;;11.41;98.41;102230.72;5028308;28;20037;-62
2022/09/20 07:08:57;;;;;;;21.90;12.40;;;;;;;11.33;98.53;102229.31;5029039;28;20112;-63
2022/09/20 07:11:22;;;;;;;20.05;12.25;;;;;;;11.23;98.95;102224.63;5029912;28;20025;-62
2022/09/20 07:13:52;;;;;;;21.35;12.80;;;;;;;11.22;99.07;102223.78;5030024;28;20025;-62
2022/09/20 07:16:19;;;;;;;21.67;12.70;;;;;;;11.22;99.34;102225.72;5029639;28;20159;-62
2022/09/20 07:18:45;;;;;;;20.48;12.57;;;;;;;11.24;99.08;102227.09;5029421;28;20053;-63
2022/09/20 07:21:12;;;;;;;20.73;12.63;;;;;;;11.28;99.56;102234.88;5028253;28;20052;-63
2022/09/20 07:23:37;;;;;;;22.35;12.45;;;;;;;11.33;98.99;102237.63;5044805;28;20040;-63
2022/09/20 07:26:02;;;;;;;22.33;13.15;;;;;;;11.38;99.36;102232.94;5029649;28;20036;-63
2022/09/20 07:28:30;;;;;;;20.52;13.07;;;;;;;11.36;98.46;102224.06;5029357;28;20033;-63
2022/09/20 07:30:55;;;;;;;21.05;12.50;;;;;;;11.50;97.85;102232.63;5028254;28;20338;-62
2022/09/20 07:33:23;;;;;;;21.50;11.80;;;;;;;11.57;97.25;102237.09;5027530;28;20043;-63
2022/09/20 07:35:51;;;;;;;19.85;11.75;;;;;;;11.58;96.85;102239.56;5029511;28;20029;-62
2022/09/20 07:38:17;;;;;;;19.80;11.95;;;;;;;11.65;96.67;102242.88;5030911;28;20029;-61
2022/09/20 07:40:45;;;;;;;21.30;11.48;;;;;;;11.70;95.70;102240.13;5033449;28;20026;-62
2022/09/20 07:43:10;;;;;;;21.50;11.27;;;;;;;11.78;94.99;102247.00;5033173;28;20109;-62
2022/09/20 07:45:37;;;;;;;20.25;11.20;;;;;;;11.82;93.96;102250.91;5033112;28;20037;-62
2022/09/20 07:48:05;;;;;;;18.33;10.98;;;;;;;11.91;92.12;102247.53;5033304;28;20029;-63
2022/09/20 07:50:31;;;;;;;20.30;10.88;;;;;;;11.95;91.73;102249.47;5033270;28;20095;-63
2022/09/20 07:52:56;;;;;;;18.67;10.27;;;;;;;12.03;91.87;102253.66;5032942;28;20396;-63
2022/09/20 07:55:22;;;;;;;18.05;9.82;;;;;;;12.08;91.52;102248.09;5033064;28;20025;-63
2022/09/20 07:57:47;;;;;;;16.52;9.98;;;;;;;12.17;90.21;102257.47;5032932;28;20107;-63
2022/09/20 08:00:13;;;;;;;17.55;9.50;;;;;;;12.26;88.75;102254.97;5032858;28;20504;-63
2022/09/20 08:02:38;;;;;;;17.85;10.50;;;;;;;12.31;88.24;102257.72;5033142;28;20087;-63
2022/09/20 08:05:04;;;;;;;18.15;9.73;;;;;;;12.39;87.73;102261.84;5033181;28;20034;-63
2022/09/20 08:07:29;;;;;;;16.27;9.90;;;;;;;12.45;88.02;102255.16;5033222;28;20033;-63
2022/09/20 08:09:54;;;;;;;17.50;9.50;;;;;;;12.52;86.76;102254.84;5033402;28;20025;-63
2022/09/20 08:12:20;;;;;;;16.77;9.73;;;;;;;12.62;86.15;102254.81;5033320;28;20029;-64
2022/09/20 08:14:46;;;;;;;15.95;9.30;;;;;;;12.67;84.05;102251.16;5033044;28;20021;-63
2022/09/20 08:17:11;;;;;;;17.48;9.50;;;;;;;12.79;83.92;102254.44;5032947;28;20031;-63
2022/09/20 08:19:38;;;;;;;17.35;9.57;;;;;;;12.92;83.64;102255.75;5032881;28;20107;-63
2022/09/20 08:22:05;;;;;;;18.55;9.23;;;;;;;13.06;80.67;102258.72;5032937;28;20025;-63
2022/09/20 08:24:31;;;;;;;14.40;8.77;;;;;;;13.15;77.96;102250.56;5024866;28;20090;-62
2022/09/20 08:26:57;;;;;;;14.57;9.02;;;;;;;13.22;75.76;102258.59;5013068;28;20025;-63
2022/09/20 08:29:22;;;;;;;15.23;8.45;;;;;;;13.31;73.38;102250.47;5012811;28;20083;-62
2022/09/20 08:31:48;;;;;;;18.63;8.55;;;;;;;13.36;71.54;102258.75;5013205;28;20022;-62
2022/09/20 08:34:14;;;;;;;18.58;8.90;;;;;;;13.40;74.24;102259.88;5019651;28;20491;-62
2022/09/20 08:36:45;;;;;;;18.35;8.93;;;;;;;13.43;74.71;102261.25;5032417;28;20099;-63
2022/09/20 08:39:13;;;;;;;16.25;8.82;;;;;;;13.45;75.02;102264.56;5032339;28;20454;-62
2022/09/20 08:41:47;;;;;;;14.63;8.75;;;;;;;13.39;74.40;102261.00;5033352;28;20030;-63
2022/09/20 08:44:25;;;;;;;16.58;9.30;;;;;;;13.46;72.39;102274.56;5033222;28;20037;-62
2022/09/20 08:47:19;;;;;;;17.75;8.93;;;;;;;13.52;76.41;102274.22;5030762;28;20033;-63
2022/09/20 08:49:44;;;;;;;15.48;8.48;;;;;;;13.55;72.33;102275.59;5028957;28;20048;-62
2022/09/20 08:52:16;;;;;;;13.73;8.65;;;;;;;13.68;72.39;102288.00;5032204;28;20029;-62
2022/09/20 08:54:42;;;;;;;16.98;9.00;;;;;;;13.80;70.48;102282.84;5032470;28;20112;-62
2022/09/20 08:57:16;;;;;;;16.25;8.43;;;;;;;14.00;71.73;102281.00;5032360;28;20509;-62
2022/09/20 08:59:42;;;;;;;16.90;9.05;;;;;;;14.16;69.84;102271.38;5030100;28;20088;-62
2022/09/20 09:02:14;;;;;;;16.33;8.40;;;;;;;14.41;71.54;102288.03;5031864;28;20021;-62
2022/09/20 09:04:41;;;;;;;15.80;8.70;;;;;;;14.60;69.74;102280.56;5031881;28;20032;-62
2022/09/20 09:07:11;;;;;;;16.17;8.90;;;;;;;14.79;68.58;102279.78;5031942;28;20500;-63
2022/09/20 09:09:40;;;;;;;16.35;8.30;;;;;;;14.99;69.20;102287.03;5032051;28;20040;-62
2022/09/20 09:12:19;;;;;;;15.38;8.55;;;;;;;15.09;67.35;102275.72;5031289;28;20041;-62
2022/09/20 09:14:48;;;;;;;16.67;8.82;;;;;;;15.16;67.72;102286.47;5032512;28;20458;-62
2022/09/20 09:17:16;;;;;;;15.05;8.65;;;;;;;15.08;68.51;102279.66;5032672;28;20124;-62
2022/09/20 09:19:44;;;;;;;16.45;8.88;;;;;;;15.01;65.51;102278.38;5032270;28;20049;-62
2022/09/20 09:22:10;;;;;;;19.42;9.93;;;;;;;14.84;66.07;102282.50;5032346;28;20523;-62
2022/09/20 09:24:35;;;;;;;14.52;8.68;;;;;;;14.75;68.78;102281.53;5030773;28;20132;-62
2022/09/20 09:27:15;;;;;;;11.98;8.20;;;;;;;14.74;65.04;102291.81;5032182;28;20436;-62
2022/09/20 09:29:52;;;;;;;15.93;8.35;;;;;;;14.56;63.79;102282.28;5032159;28;20037;-62
2022/09/20 09:32:30;;;;;;;13.95;8.95;;;;;;;14.59;63.42;102280.88;5032094;28;20044;-63
2022/09/20 09:35:17;;;;;;;15.25;8.60;;;;;;;14.58;64.22;102287.56;5031417;28;20053;-62
2022/09/20 09:37:52;;;;;;;16.45;9.00;;;;;;;14.41;63.88;102277.75;5032106;28;20033;-62
2022/09/20 09:40:18;;;;;;;15.95;9.15;;;;;;;14.42;63.45;102287.75;5032062;28;20048;-63
2022/09/20 09:42:57;;;;;;;15.85;9.18;;;;;;;14.33;65.00;102292.31;5031859;28;20026;-63
2022/09/20 09:45:41;;;;;;;14.82;8.88;;;;;;;14.20;65.18;102299.44;5031692;28;20477;-63
2022/09/20 09:48:17;;;;;;;;;;;;;;;14.27;66.57;102305.47;5032332;28;20037;-62
2022/09/20 09:50:43;;;;;;;16.25;9.75;;;;;;;13.99;67.24;102305.22;5031734;28;20031;-62
2022/09/20 09:53:12;;;;;;;18.92;9.40;;;;;;;13.82;69.06;102297.31;5031596;28;20104;-62
2022/09/20 09:55:56;;;;;;;15.30;8.90;;;;;;;13.80;70.46;102299.53;5031606;28;20437;-61
2022/09/20 09:58:48;;;;;;;18.50;9.50;;;;;;;13.74;71.84;102297.94;5031280;28;20034;-62
2022/09/20 10:01:32;;;;;;;16.67;9.60;;;;;;;13.80;72.36;102307.06;5020852;28;20515;-62
2022/09/20 10:04:16;;;;;;;18.02;9.10;;;;;;;13.75;72.53;102307.94;5031404;28;20025;-63
2022/09/20 10:06:56;;;;;;;16.77;9.00;;;;;;;13.65;73.10;102306.06;5031654;28;20483;-63
2022/09/20 10:09:21;;;;;;;15.23;9.07;;;;;;;13.61;73.93;102310.56;5031480;28;20038;-62
2022/09/20 10:12:03;;;;;;;16.20;9.10;;;;;;;13.65;74.57;102308.03;5030504;28;20025;-63
2022/09/20 10:14:44;;;;;;;17.25;9.55;;;;;;;13.68;73.62;102307.47;5031898;28;20079;-63
2022/09/20 10:17:33;;;;;;;15.55;8.45;;;;;;;13.79;73.77;102309.00;5031643;28;20040;-64
2022/09/20 10:20:20;;;;;;;17.02;8.73;;;;;;;13.85;72.72;102304.22;5029831;28;20044;-62
2022/09/20 10:23:07;;;;;;;19.67;9.05;;;;;;;14.09;72.94;102312.59;5031374;28;20036;-63
2022/09/20 10:25:40;;;;;;;16.70;8.90;;;;;;;14.37;70.36;102298.13;5031228;28;20108;-63
2022/09/20 10:28:33;;;;;;;14.52;8.05;;;;;;;14.58;68.16;102293.13;5030868;28;20108;-62
2022/09/20 10:31:00;;;;;;;13.93;8.30;;;;;;;14.71;65.56;102294.38;5028880;28;20167;-62
2022/09/20 10:33:44;;;;;;;17.13;8.40;;;;;;;14.86;67.29;102299.75;5017061;28;20053;-63
2022/09/20 10:36:23;;;;;;;15.15;8.45;;;;;;;14.97;67.72;102290.09;5011066;28;20026;-62
2022/09/20 10:38:48;;;;;;;19.17;8.85;;;;;;;15.10;65.33;102299.69;5010920;28;20037;-63
2022/09/20 10:44:36;;;;;;;16.30;8.20;;;;;;;15.01;65.09;102293.13;5009488;28;20053;-61
2022/09/20 10:47:01;;;;;;;12.90;8.00;;;;;;;15.24;62.65;102302.53;5010285;28;20030;-62
2022/09/20 10:49:32;;;;;;;12.88;8.13;;;;;;;15.41;62.58;102296.41;5010282;28;20033;-62
2022/09/20 10:52:00;;;;;;;14.35;8.60;;;;;;;15.57;61.49;102291.41;5010194;28;20022;-61
2022/09/20 10:54:40;;;;;;;11.55;8.30;;;;;;;15.72;60.58;102284.72;5010111;28;20033;-62
2022/09/20 10:57:17;;;;;;;12.63;8.00;;;;;;;15.64;60.67;102292.97;5010440;28;20052;-62
2022/09/20 11:00:10;;;;;;;11.98;8.50;;;;;;;15.62;62.22;102292.47;5010303;28;20125;-62
2022/09/20 11:03:03;;;;;;;11.55;8.60;;;;;;;15.59;60.22;102300.31;5010000;28;20466;-62
2022/09/20 11:05:40;;;;;;;15.73;8.60;;;;;;;15.47;60.53;102291.56;4979024;28;20033;-62
2022/09/20 11:08:21;;;;;;;16.65;8.20;;;;;;;15.78;62.16;102305.00;5010357;28;20038;-62
2022/09/20 11:10:59;;;;;;;15.07;8.02;;;;;;;15.78;59.43;102318.09;5009815;28;20319;-62
2022/09/20 11:13:45;;;;;;;10.57;7.63;;;;;;;15.82;60.18;102308.00;5009756;28;20101;-62
2022/09/20 11:16:21;;;;;;;13.57;8.20;;;;;;;15.72;59.37;102309.84;5009927;28;20493;-61
2022/09/20 11:19:16;;;;;;;16.85;8.75;;;;;;;15.79;59.76;102312.25;5009546;28;20060;-62
2022/09/20 11:22:04;;;;;;;14.43;8.57;;;;;;;15.80;60.01;102313.91;5009403;28;20042;-61
2022/09/20 11:24:33;;;;;;;13.50;8.20;;;;;;;15.69;56.64;102307.66;5003946;28;20042;-62
2022/09/20 11:27:04;;;;;;;13.40;8.20;;;;;;;15.53;58.00;102325.78;5008250;28;20052;-61
2022/09/20 11:29:39;;;;;;;14.02;8.23;;;;;;;15.54;59.36;102331.06;5009378;28;20022;-62
2022/09/20 11:32:14;;;;;;;16.25;8.45;;;;;;;15.47;59.05;102332.59;5009759;28;20038;-62
2022/09/20 11:34:49;;;;;;;13.25;8.50;;;;;;;15.56;60.27;102322.41;5008406;28;20034;-62
2022/09/20 11:37:17;;;;;;;14.90;8.80;;;;;;;15.34;59.65;102312.69;5008498;28;20076;-62
2022/09/20 11:39:59;;;;;;;13.40;8.57;;;;;;;15.48;60.33;102331.47;5009876;28;20374;-62
2022/09/20 11:42:34;;;;;;;14.93;8.90;;;;;;;15.46;61.06;102336.50;5009844;28;20022;-62
2022/09/20 11:44:59;;;;;;;13.75;8.57;;;;;;;15.30;59.41;102322.81;5008294;28;20026;-62
2022/09/20 11:47:34;;;;;;;12.35;8.30;;;;;;;15.34;59.79;102332.22;5009874;28;20049;-62
2022/09/20 11:50:31;;;;;;;13.98;8.88;;;;;;;15.26;60.14;102336.50;5010167;28;20030;-61
2022/09/20 11:53:19;;;;;;;13.13;8.60;;;;;;;15.26;61.48;102327.31;5010178;28;20057;-62
2022/09/20 11:56:11;;;;;;;13.82;8.30;;;;;;;15.24;61.78;102333.22;5002844;28;20046;-62
2022/09/20 11:58:47;;;;;;;15.68;8.55;;;;;;;15.21;60.65;102328.22;5009725;28;20026;-62
2022/09/20 12:01:14;;;;;;;14.30;8.32;;;;;;;15.19;61.09;102340.81;5010032;28;20026;-62
2022/09/20 12:03:42;;;;;;;11.77;8.40;;;;;;;15.09;61.13;102330.63;5009588;28;20088;-62
2022/09/20 12:06:23;;;;;;;15.65;8.63;;;;;;;15.25;62.36;102336.81;5009279;28;20026;-62
2022/09/20 12:08:50;;;;;;;13.18;8.40;;;;;;;15.13;60.78;102315.78;5009405;28;20460;-61
2022/09/20 12:11:25;;;;;;;12.63;8.40;;;;;;;15.16;60.74;102324.69;5009735;28;20041;-62